Time;durP1;ratioP1;P1;durP2;ratioP2;P2;SDS_P1;SDS_P2;PMS_P1;PMS_P2;Temp;Humidity;BMP_temperature;BMP_pressure;BME280_temperature;BME280_humidity;BME280_pressure;Samples;Min_cycle;Max_cycle;Signal;HPM_P1;HPM_P2
2023/01/25 00:00:27;;;;;;;;;;;;;;;;;;5097063;28;20314;-77
2023/01/25 00:02:53;;;;;;;;;;;;;;;;;;5098737;28;19908;-77
2023/01/25 00:05:19;;;;;;;;;;;;;;;;;;5096545;28;19912;-76
2023/01/25 00:07:44;;;;;;;;;;;;;;;;;;5098307;28;19908;-77
2023/01/25 00:10:10;;;;;;;;;;;;;;;;;;5097823;28;19908;-77
2023/01/25 00:12:36;;;;;;;;;;;;;;;;;;5097483;28;19915;-77
2023/01/25 00:15:02;;;;;;;;;;;;;;;;;;5097844;28;19908;-77
2023/01/25 00:17:28;;;;;;;;;;;;;;;;;;5096468;28;19915;-77
2023/01/25 00:19:54;;;;;;;;;;;;;;;;;;5097059;28;19936;-77
2023/01/25 00:22:20;;;;;;;;;;;;;;;;;;5098476;28;19909;-76
2023/01/25 00:24:46;;;;;;;;;;;;;;;;;;5095233;28;19916;-77
2023/01/25 00:27:12;;;;;;;;;;;;;;;;;;5098156;28;19969;-77
2023/01/25 00:29:37;;;;;;;;;;;;;;;;;;5096237;28;19912;-76
2023/01/25 00:32:03;;;;;;;;;;;;;;;;;;5097139;28;19915;-77
2023/01/25 00:34:29;;;;;;;;;;;;;;;;;;5096798;28;19965;-77
2023/01/25 00:36:55;;;;;;;;;;;;;;;;;;5098035;28;19908;-77
2023/01/25 00:39:21;;;;;;;;;;;;;;;;;;5096287;28;20317;-77
2023/01/25 00:41:47;;;;;;;;;;;;;;;;;;5096780;28;19974;-77
2023/01/25 00:44:13;;;;;;;;;;;;;;;;;;5096273;28;19955;-77
2023/01/25 00:46:39;;;;;;;;;;;;;;;;;;5096361;28;20284;-77
2023/01/25 00:49:05;;;;;;;;;;;;;;;;;;5096839;28;19909;-77
2023/01/25 00:51:31;;;;;;;;;;;;;;;;;;5096417;28;19914;-77
2023/01/25 00:53:57;;;;;;;;;;;;;;;;;;5096833;28;20421;-77
2023/01/25 00:56:23;;;;;;;;;;;;;;;;;;5096563;28;19908;-77
2023/01/25 00:58:48;;;;;;;;;;;;;;;;;;5095586;28;19965;-76
2023/01/25 01:01:14;;;;;;;;;;;;;;;;;;5096311;28;20353;-78
2023/01/25 01:03:40;;;;;;;;;;;;;;;;;;5097081;28;19999;-77
2023/01/25 01:06:06;;;;;;;;;;;;;;;;;;5096090;28;19908;-77
2023/01/25 01:08:32;;;;;;;;;;;;;;;;;;5095372;28;19908;-77
2023/01/25 01:10:59;;;;;;;;;;;;;;;;;;5096560;28;19938;-77
2023/01/25 01:13:24;;;;;;;;;;;;;;;;;;5097235;28;19908;-77
2023/01/25 01:15:50;;;;;;;;;;;;;;;;;;5095892;28;19943;-77
2023/01/25 01:18:16;;;;;;;;;;;;;;;;;;5095024;28;19992;-77
2023/01/25 01:20:42;;;;;;;;;;;;;;;;;;5095855;28;20016;-78
2023/01/25 01:23:08;;;;;;;;;;;;;;;;;;5095933;28;19912;-77
2023/01/25 01:25:34;;;;;;;;;;;;;;;;;;5094615;28;19919;-77
2023/01/25 01:28:00;;;;;;;;;;;;;;;;;;5096610;28;19908;-77
2023/01/25 01:30:26;;;;;;;;;;;;;;;;;;5096758;28;19915;-77
2023/01/25 01:32:51;;;;;;;;;;;;;;;;;;5095695;28;19908;-77
2023/01/25 01:35:17;;;;;;;;;;;;;;;;;;5095402;28;19912;-77
2023/01/25 01:37:43;;;;;;;;;;;;;;;;;;5094897;28;20534;-77
2023/01/25 01:40:09;;;;;;;;;;;;;;;;;;5095208;28;20011;-77
2023/01/25 01:42:35;;;;;;;;;;;;;;;;;;5096597;28;19908;-77
2023/01/25 01:45:01;;;;;;;;;;;;;;;;;;5095907;28;19912;-77
2023/01/25 01:47:27;;;;;;;;;;;;;;;;;;5094969;28;19919;-77
2023/01/25 01:49:53;;;;;;;;;;;;;;;;;;5095830;28;20277;-77
2023/01/25 01:52:19;;;;;;;;;;;;;;;;;;5095273;28;20368;-77
2023/01/25 01:54:44;;;;;;;;;;;;;;;;;;5096049;28;19969;-77
2023/01/25 01:57:10;;;;;;;;;;;;;;;;;;5095178;28;19908;-76
2023/01/25 01:59:36;;;;;;;;;;;;;;;;;;5094166;28;19971;-77
2023/01/25 02:02:02;;;;;;;;;;;;;;;;;;5093612;28;19908;-77
2023/01/25 02:04:28;;;;;;;;;;;;;;;;;;5094621;28;20379;-78
2023/01/25 02:06:54;;;;;;;;;;;;;;;;;;5094973;28;19908;-77
2023/01/25 02:09:20;;;;;;;;;;;;;;;;;;5093352;28;19908;-77
2023/01/25 02:11:46;;;;;;;;;;;;;;;;;;5094263;28;19908;-77
2023/01/25 02:14:12;;;;;;;;;;;;;;;;;;5095086;28;19996;-77
2023/01/25 02:16:38;;;;;;;;;;;;;;;;;;5094813;28;19916;-77
2023/01/25 02:19:04;;;;;;;;;;;;;;;;;;5096096;28;19915;-77
2023/01/25 02:21:29;;;;;;;;;;;;;;;;;;5094972;28;19915;-77
2023/01/25 02:23:55;;;;;;;;;;;;;;;;;;5095343;28;19912;-76
2023/01/25 02:26:22;;;;;;;;;;;;;;;;;;5095002;28;19930;-76
2023/01/25 02:28:48;;;;;;;;;;;;;;;;;;5094769;28;19912;-77
2023/01/25 02:31:14;;;;;;;;;;;;;;;;;;5095916;28;19908;-77
2023/01/25 02:33:40;;;;;;;;;;;;;;;;;;5096292;28;19997;-78
2023/01/25 02:36:06;;;;;;;;;;;;;;;;;;5095084;28;19991;-76
2023/01/25 02:38:32;;;;;;;;;;;;;;;;;;5095843;28;20287;-75
2023/01/25 02:40:58;;;;;;;;;;;;;;;;;;5095172;28;19912;-76
2023/01/25 02:43:23;;;;;;;;;;;;;;;;;;5095007;28;19930;-77
2023/01/25 02:45:49;;;;;;;;;;;;;;;;;;5094854;28;19962;-77
2023/01/25 02:48:15;;;;;;;;;;;;;;;;;;5095657;28;19983;-77
2023/01/25 02:50:41;;;;;;;;;;;;;;;;;;5095253;28;19934;-77
2023/01/25 02:53:07;;;;;;;;;;;;;;;;;;5094874;28;19908;-77
2023/01/25 02:55:33;;;;;;;;;;;;;;;;;;5094452;28;19908;-77
2023/01/25 02:57:59;;;;;;;;;;;;;;;;;;5095918;28;19912;-77
2023/01/25 03:00:25;;;;;;;;;;;;;;;;;;5096029;28;20292;-77
2023/01/25 03:02:51;;;;;;;;;;;;;;;;;;5094724;28;19934;-77
2023/01/25 03:05:16;;;;;;;;;;;;;;;;;;5095412;28;19965;-76
2023/01/25 03:07:42;;;;;;;;;;;;;;;;;;5094124;28;20285;-76
2023/01/25 03:10:08;;;;;;;;;;;;;;;;;;5095506;28;19973;-77
2023/01/25 03:12:34;;;;;;;;;;;;;;;;;;5094435;28;20458;-77
2023/01/25 03:15:00;;;;;;;;;;;;;;;;;;5093624;28;19909;-77
2023/01/25 03:17:26;;;;;;;;;;;;;;;;;;5094139;28;19916;-77
2023/01/25 03:19:52;;;;;;;;;;;;;;;;;;5095111;28;19908;-76
2023/01/25 03:22:18;;;;;;;;;;;;;;;;;;5097634;28;19912;-77
2023/01/25 03:24:44;;;;;;;;;;;;;;;;;;5095629;28;19938;-77
2023/01/25 03:27:10;;;;;;;;;;;;;;;;;;5098336;28;20360;-77
2023/01/25 03:29:36;;;;;;;;;;;;;;;;;;5097339;28;19913;-77
2023/01/25 03:32:03;;;;;;;;;;;;;;;;;;5098216;28;19914;-77
2023/01/25 03:34:28;;;;;;;;;;;;;;;;;;5099824;28;19951;-77
2023/01/25 03:36:54;;;;;;;;;;;;;;;;;;5099474;28;20410;-77
2023/01/25 03:39:20;;;;;;;;;;;;;;;;;;5097581;28;19961;-77
2023/01/25 03:41:46;;;;;;;;;;;;;;;;;;5098543;28;20066;-77
2023/01/25 03:44:12;;;;;;;;;;;;;;;;;;5098327;28;19916;-76
2023/01/25 03:46:38;;;;;;;;;;;;;;;;;;5098043;28;20011;-76
2023/01/25 03:49:04;;;;;;;;;;;;;;;;;;5097612;28;19931;-76
2023/01/25 03:51:30;;;;;;;;;;;;;;;;;;5098014;28;19909;-77
2023/01/25 03:53:55;;;;;;;;;;;;;;;;;;5097805;28;19961;-77
2023/01/25 03:56:21;;;;;;;;;;;;;;;;;;5098647;28;19908;-80
2023/01/25 03:58:47;;;;;;;;;;;;;;;;;;5098295;28;19919;-77
2023/01/25 04:01:13;;;;;;;;;;;;;;;;;;5097987;28;19908;-77
2023/01/25 04:03:39;;;;;;;;;;;;;;;;;;5099065;28;19959;-77
2023/01/25 04:06:05;;;;;;;;;;;;;;;;;;5099140;28;19947;-77
2023/01/25 04:08:31;;;;;;;;;;;;;;;;;;5097758;28;19983;-77
2023/01/25 04:10:57;;;;;;;;;;;;;;;;;;5098981;28;19914;-78
2023/01/25 04:13:23;;;;;;;;;;;;;;;;;;5098379;28;19908;-77
2023/01/25 04:15:48;;;;;;;;;;;;;;;;;;5099198;28;19908;-77
2023/01/25 04:18:14;;;;;;;;;;;;;;;;;;5098956;28;19908;-78
2023/01/25 04:20:40;;;;;;;;;;;;;;;;;;5097726;28;19915;-79
2023/01/25 04:23:06;;;;;;;;;;;;;;;;;;5098149;28;20379;-77
2023/01/25 04:25:32;;;;;;;;;;;;;;;;;;5096111;28;19938;-77
2023/01/25 04:27:58;;;;;;;;;;;;;;;;;;5098191;28;19912;-77
2023/01/25 04:30:24;;;;;;;;;;;;;;;;;;5098239;28;19915;-77
2023/01/25 04:32:50;;;;;;;;;;;;;;;;;;5096168;28;20368;-76
2023/01/25 04:35:16;;;;;;;;;;;;;;;;;;5098610;28;19962;-76
2023/01/25 04:37:42;;;;;;;;;;;;;;;;;;5095940;28;20425;-77
2023/01/25 04:40:08;;;;;;;;;;;;;;;;;;5098568;28;19962;-76
2023/01/25 04:42:33;;;;;;;;;;;;;;;;;;5097618;28;19985;-76
2023/01/25 04:44:59;;;;;;;;;;;;;;;;;;5097022;28;19912;-78
2023/01/25 04:47:25;;;;;;;;;;;;;;;;;;5096690;28;19919;-77
2023/01/25 04:49:51;;;;;;;;;;;;;;;;;;5096576;28;19908;-77
2023/01/25 04:52:17;;;;;;;;;;;;;;;;;;5096837;28;19957;-77
2023/01/25 04:54:43;;;;;;;;;;;;;;;;;;5097952;28;19908;-77
2023/01/25 04:57:09;;;;;;;;;;;;;;;;;;5097039;28;20395;-77
2023/01/25 04:59:35;;;;;;;;;;;;;;;;;;5097142;28;20007;-77
2023/01/25 05:02:01;;;;;;;;;;;;;;;;;;5097595;28;19951;-77
2023/01/25 05:04:27;;;;;;;;;;;;;;;;;;5097683;28;19959;-77
2023/01/25 05:06:52;;;;;;;;;;;;;;;;;;5097417;28;20442;-78
2023/01/25 05:09:19;;;;;;;;;;;;;;;;;;5095591;28;19918;-75
2023/01/25 05:11:45;;;;;;;;;;;;;;;;;;5097220;28;19916;-77
2023/01/25 05:14:11;;;;;;;;;;;;;;;;;;5097809;28;19955;-77
2023/01/25 05:16:37;;;;;;;;;;;;;;;;;;5096241;28;19908;-77
2023/01/25 05:19:03;;;;;;;;;;;;;;;;;;5097109;28;19954;-77
2023/01/25 05:24:13;;;;;;;;;;;;;;;;;;5095907;28;20386;-76
2023/01/25 05:29:24;;;;;;;;;;;;;;;;;;5096292;28;19915;-77
2023/01/25 05:31:50;;;;;;;;;;;;;;;;;;5098005;28;19908;-77
2023/01/25 05:34:15;;;;;;;;;;;;;;;;;;5096252;28;19915;-77
2023/01/25 05:36:41;;;;;;;;;;;;;;;;;;5097214;28;20392;-76
2023/01/25 05:39:07;;;;;;;;;;;;;;;;;;5097171;28;19934;-77
2023/01/25 05:41:33;;;;;;;;;;;;;;;;;;5096540;28;19978;-75
2023/01/25 05:43:59;;;;;;;;;;;;;;;;;;5096254;28;20392;-77
2023/01/25 05:46:25;;;;;;;;;;;;;;;;;;5097136;28;19930;-77
2023/01/25 05:48:51;;;;;;;;;;;;;;;;;;5097470;28;19908;-77
2023/01/25 05:51:17;;;;;;;;;;;;;;;;;;5097257;28;20368;-77
2023/01/25 05:53:43;;;;;;;;;;;;;;;;;;5097622;28;19958;-77
2023/01/25 05:56:09;;;;;;;;;;;;;;;;;;5096234;28;19950;-77
2023/01/25 05:58:35;;;;;;;;;;;;;;;;;;5095861;28;19931;-77
2023/01/25 06:01:01;;;;;;;;;;;;;;;;;;5097497;28;20372;-77
2023/01/25 06:03:27;;;;;;;;;;;;;;;;;;5096319;28;19915;-77
2023/01/25 06:05:53;;;;;;;;;;;;;;;;;;5095993;28;19908;-77
2023/01/25 06:08:19;;;;;;;;;;;;;;;;;;5095938;28;19916;-77
2023/01/25 06:10:44;;;;;;;;;;;;;;;;;;5096118;28;19915;-77
2023/01/25 06:13:10;;;;;;;;;;;;;;;;;;5096510;28;20428;-76
2023/01/25 06:15:36;;;;;;;;;;;;;;;;;;5097314;28;20265;-76
2023/01/25 06:18:02;;;;;;;;;;;;;;;;;;5095937;28;20376;-77
2023/01/25 06:20:28;;;;;;;;;;;;;;;;;;5095532;28;19919;-77
2023/01/25 06:22:54;;;;;;;;;;;;;;;;;;5095043;28;19908;-77
2023/01/25 06:25:20;;;;;;;;;;;;;;;;;;5097172;28;19919;-80
2023/01/25 06:27:46;;;;;;;;;;;;;;;;;;5101351;28;19909;-78
2023/01/25 06:30:12;;;;;;;;;;;;;;;;;;5096145;28;19915;-77
2023/01/25 06:32:37;;;;;;;;;;;;;;;;;;5093684;28;20318;-76
2023/01/25 06:35:03;;;;;;;;;;;;;;;;;;5092509;28;19909;-76
2023/01/25 06:37:29;;;;;;;;;;;;;;;;;;5094802;28;19908;-76
2023/01/25 06:39:55;;;;;;;;;;;;;;;;;;5094487;28;20250;-75
2023/01/25 06:42:21;;;;;;;;;;;;;;;;;;5094556;28;19908;-76
2023/01/25 06:44:47;;;;;;;;;;;;;;;;;;5094387;28;20015;-75
2023/01/25 06:47:13;;;;;;;;;;;;;;;;;;5093461;28;19908;-77
2023/01/25 06:49:39;;;;;;;;;;;;;;;;;;5094745;28;19908;-77
2023/01/25 06:52:05;;;;;;;;;;;;;;;;;;5093501;28;20387;-77
2023/01/25 06:54:31;;;;;;;;;;;;;;;;;;5092842;28;19908;-77
2023/01/25 06:56:57;;;;;;;;;;;;;;;;;;5098810;28;19956;-76
2023/01/25 06:59:23;;;;;;;;;;;;;;;;;;5097057;28;20014;-76
2023/01/25 07:01:49;;;;;;;;;;;;;;;;;;5096107;28;20303;-77
2023/01/25 07:04:14;;;;;;;;;;;;;;;;;;5097750;28;20032;-76
2023/01/25 07:06:40;;;;;;;;;;;;;;;;;;5096183;28;20288;-76
2023/01/25 07:09:06;;;;;;;;;;;;;;;;;;5097662;28;19915;-75
2023/01/25 07:11:32;;;;;;;;;;;;;;;;;;5096791;28;19919;-76
2023/01/25 07:13:59;;;;;;;;;;;;;;;;;;5098472;28;19912;-76
2023/01/25 07:16:25;;;;;;;;;;;;;;;;;;5096673;28;20041;-76
2023/01/25 07:18:51;;;;;;;;;;;;;;;;;;5098111;28;19952;-76
2023/01/25 07:21:17;;;;;;;;;;;;;;;;;;5096304;28;19915;-75
2023/01/25 07:23:42;;;;;;;;;;;;;;;;;;5095282;28;19914;-76
2023/01/25 07:26:08;;;;;;;;;;;;;;;;;;5095244;28;19994;-76
2023/01/25 07:28:35;;;;;;;;;;;;;;;;;;5095701;28;19915;-76
2023/01/25 07:31:01;;;;;;;;;;;;;;;;;;5095144;28;19963;-76
2023/01/25 07:33:26;;;;;;;;;;;;;;;;;;5096702;28;19908;-76
2023/01/25 07:35:52;;;;;;;;;;;;;;;;;;5094952;28;19999;-76
2023/01/25 07:38:18;;;;;;;;;;;;;;;;;;5095127;28;19916;-76
2023/01/25 07:40:44;;;;;;;;;;;;;;;;;;5096900;28;19961;-78
2023/01/25 07:43:10;;;;;;;;;;;;;;;;;;5097088;28;19908;-76
2023/01/25 07:45:36;;;;;;;;;;;;;;;;;;5095073;28;19912;-76
2023/01/25 07:48:02;;;;;;;;;;;;;;;;;;5096111;28;19915;-76
2023/01/25 07:50:28;;;;;;;;;;;;;;;;;;5095036;28;19908;-76
2023/01/25 07:52:54;;;;;;;;;;;;;;;;;;5096524;28;20292;-76
2023/01/25 07:55:19;;;;;;;;;;;;;;;;;;5094876;28;20322;-75
2023/01/25 07:57:46;;;;;;;;;;;;;;;;;;5096397;28;20323;-77
2023/01/25 08:00:12;;;;;;;;;;;;;;;;;;5096275;28;19920;-75
2023/01/25 08:02:38;;;;;;;;;;;;;;;;;;5094954;28;19938;-76
2023/01/25 08:05:05;;;;;;;;;;;;;;;;;;5096245;28;19912;-76
2023/01/25 08:07:31;;;;;;;;;;;;;;;;;;5096984;28;20350;-76
2023/01/25 08:09:56;;;;;;;;;;;;;;;;;;5096573;28;20027;-77
2023/01/25 08:12:24;;;;;;;;;;;;;;;;;;5097637;28;19908;-76
2023/01/25 08:14:50;;;;;;;;;;;;;;;;;;5099422;28;19908;-77
2023/01/25 08:17:16;;;;;;;;;;;;;;;;;;5097978;28;20434;-77
2023/01/25 08:19:42;;;;;;;;;;;;;;;;;;5096503;28;19934;-77
2023/01/25 08:22:08;;;;;;;;;;;;;;;;;;5097656;28;19908;-77
2023/01/25 08:24:34;;;;;;;;;;;;;;;;;;5094700;28;19920;-76
2023/01/25 08:27:00;;;;;;;;;;;;;;;;;;5097389;28;19908;-77
2023/01/25 08:29:26;;;;;;;;;;;;;;;;;;5096206;28;19908;-76
2023/01/25 08:31:52;;;;;;;;;;;;;;;;;;5096848;28;20291;-77
2023/01/25 08:34:18;;;;;;;;;;;;;;;;;;5097059;28;19912;-77
2023/01/25 08:36:44;;;;;;;;;;;;;;;;;;5098402;28;19915;-78
2023/01/25 08:39:10;;;;;;;;;;;;;;;;;;5098009;28;20323;-77
2023/01/25 08:41:36;;;;;;;;;;;;;;;;;;5095994;28;19934;-77
2023/01/25 08:44:02;;;;;;;;;;;;;;;;;;5097801;28;19912;-77
2023/01/25 08:46:28;;;;;;;;;;;;;;;;;;5098180;28;19915;-76
2023/01/25 08:48:54;;;;;;;;;;;;;;;;;;5096610;28;19913;-77
2023/01/25 08:51:20;;;;;;;;;;;;;;;;;;5099184;28;19919;-77
2023/01/25 08:53:46;;;;;;;;;;;;;;;;;;5099463;28;19908;-77
2023/01/25 08:56:11;;;;;;;;;;;;;;;;;;5098428;28;19979;-76
2023/01/25 08:58:37;;;;;;;;;;;;;;;;;;5096857;28;21598;-76
2023/01/25 09:01:03;;;;;;;;;;;;;;;;;;5097481;28;20140;-77
2023/01/25 09:03:29;;;;;;;;;;;;;;;;;;5096675;28;19908;-77
2023/01/25 09:05:55;;;;;;;;;;;;;;;;;;5097485;28;19955;-78
2023/01/25 09:08:21;;;;;;;;;;;;;;;;;;5095440;28;19916;-77
2023/01/25 09:10:47;;;;;;;;;;;;;;;;;;5092871;28;19908;-77
2023/01/25 09:13:13;;;;;;;;;;;;;;;;;;5083960;28;19912;-77
2023/01/25 09:15:39;;;;;;;;;;;;;;;;;;5076448;28;20344;-78
2023/01/25 09:18:05;;;;;;;;;;;;;;;;;;5079433;28;19909;-77
2023/01/25 09:20:31;;;;;;;;;;;;;;;;;;5077294;28;19908;-78
2023/01/25 09:22:56;;;;;;;;;;;;;;;;;;5078326;28;19916;-76
2023/01/25 09:25:22;;;;;;;;;;;;;;;;;;5077998;28;19917;-76
2023/01/25 09:27:49;;;;;;;;;;;;;;;;;;5078929;28;20377;-78
2023/01/25 09:30:15;;;;;;;;;;;;;;;;;;5077976;28;19958;-77
2023/01/25 09:32:41;;;;;;;;;;;;;;;;;;5077294;28;20006;-77
2023/01/25 09:35:07;;;;;;;;;;;;;;;;;;5077925;28;19915;-76
2023/01/25 09:37:33;;;;;;;;;;;;;;;;;;5078035;28;19909;-78
2023/01/25 09:39:59;;;;;;;;;;;;;;;;;;5077859;28;19912;-79
2023/01/25 09:42:25;;;;;;;;;;;;;;;;;;5074720;28;20003;-77
2023/01/25 09:44:51;;;;;;;;;;;;;;;;;;5076015;28;19947;-77
2023/01/25 09:47:17;;;;;;;;;;;;;;;;;;5074575;28;19909;-78
2023/01/25 09:49:43;;;;;;;;;;;;;;;;;;5076317;28;20003;-77
2023/01/25 09:52:09;;;;;;;;;;;;;;;;;;5075032;28;19912;-77
2023/01/25 09:54:34;;;;;;;;;;;;;;;;;;5075162;28;19981;-77
2023/01/25 09:57:00;;;;;;;;;;;;;;;;;;5074722;28;19934;-80
2023/01/25 09:59:29;;;;;;;;;;;;;;;;;;5074153;28;19965;-77
2023/01/25 10:01:55;;;;;;;;;;;;;;;;;;5076412;28;19915;-76
2023/01/25 10:04:21;;;;;;;;;;;;;;;;;;5076843;28;20368;-77
2023/01/25 10:06:47;;;;;;;;;;;;;;;;;;5075479;28;19995;-77
2023/01/25 10:09:13;;;;;;;;;;;;;;;;;;5084317;28;19912;-77
2023/01/25 10:11:38;;;;;;;;;;;;;;;;;;5083290;28;19916;-78
2023/01/25 10:14:04;;;;;;;;;;;;;;;;;;5078230;28;20270;-76
2023/01/25 10:16:30;;;;;;;;;;;;;;;;;;5078010;28;19916;-76
2023/01/25 10:18:56;;;;;;;;;;;;;;;;;;5078612;28;19909;-76
2023/01/25 10:21:22;;;;;;;;;;;;;;;;;;5078938;28;20370;-76
2023/01/25 10:23:48;;;;;;;;;;;;;;;;;;5078354;28;20320;-78
2023/01/25 10:26:14;;;;;;;;;;;;;;;;;;5079492;28;19979;-78
2023/01/25 10:28:40;;;;;;;;;;;;;;;;;;5077535;28;20014;-78
2023/01/25 10:31:06;;;;;;;;;;;;;;;;;;5075056;28;19961;-78
2023/01/25 10:33:32;;;;;;;;;;;;;;;;;;5076647;28;19930;-78
2023/01/25 10:35:58;;;;;;;;;;;;;;;;;;5077717;28;19909;-77
2023/01/25 10:38:24;;;;;;;;;;;;;;;;;;5076279;28;19962;-78
2023/01/25 10:40:50;;;;;;;;;;;;;;;;;;5078680;28;19908;-78
2023/01/25 10:43:16;;;;;;;;;;;;;;;;;;5078160;28;20353;-78
2023/01/25 10:45:43;;;;;;;;;;;;;;;;;;5078022;28;19920;-77
2023/01/25 10:48:09;;;;;;;;;;;;;;;;;;5080301;28;20054;-78
2023/01/25 10:50:35;;;;;;;;;;;;;;;;;;5080700;28;19939;-78
2023/01/25 10:53:01;;;;;;;;;;;;;;;;;;5080205;28;19962;-76
2023/01/25 10:55:27;;;;;;;;;;;;;;;;;;5077553;28;19908;-78
2023/01/25 10:57:53;;;;;;;;;;;;;;;;;;5081233;28;20010;-77
2023/01/25 11:00:19;;;;;;;;;;;;;;;;;;5080874;28;20302;-77
2023/01/25 11:02:45;;;;;;;;;;;;;;;;;;5079907;28;19909;-78
2023/01/25 11:05:11;;;;;;;;;;;;;;;;;;5077962;28;20468;-77
2023/01/25 11:07:37;;;;;;;;;;;;;;;;;;5077884;28;20013;-76
2023/01/25 11:10:03;;;;;;;;;;;;;;;;;;5077938;28;20003;-76
2023/01/25 11:12:29;;;;;;;;;;;;;;;;;;5075880;28;20383;-78
2023/01/25 11:14:55;;;;;;;;;;;;;;;;;;5073283;28;19954;-78
2023/01/25 11:17:21;;;;;;;;;;;;;;;;;;5073350;28;19972;-79
2023/01/25 11:19:47;;;;;;;;;;;;;;;;;;5078448;28;20296;-78
2023/01/25 11:22:12;;;;;;;;;;;;;;;;;;5078133;28;19913;-77
2023/01/25 11:24:38;;;;;;;;;;;;;;;;;;5076438;28;19916;-77
2023/01/25 11:27:04;;;;;;;;;;;;;;;;;;5075938;28;19909;-78
2023/01/25 11:29:30;;;;;;;;;;;;;;;;;;5079114;28;19915;-76
2023/01/25 11:31:57;;;;;;;;;;;;;;;;;;5077347;28;19916;-77
2023/01/25 11:34:23;;;;;;;;;;;;;;;;;;5075963;28;20263;-78
2023/01/25 11:36:49;;;;;;;;;;;;;;;;;;5075015;28;19960;-77
2023/01/25 11:39:15;;;;;;;;;;;;;;;;;;5073504;28;20003;-76
2023/01/25 11:41:41;;;;;;;;;;;;;;;;;;5076835;28;20288;-77
2023/01/25 11:44:07;;;;;;;;;;;;;;;;;;5078136;28;19962;-78
2023/01/25 11:46:33;;;;;;;;;;;;;;;;;;5078037;28;19909;-77
2023/01/25 11:48:59;;;;;;;;;;;;;;;;;;5076775;28;20399;-76
2023/01/25 11:51:25;;;;;;;;;;;;;;;;;;5076561;28;19908;-78
2023/01/25 11:53:51;;;;;;;;;;;;;;;;;;5081763;28;19916;-78
2023/01/25 11:56:17;;;;;;;;;;;;;;;;;;5081027;28;19908;-78
2023/01/25 11:58:43;;;;;;;;;;;;;;;;;;5081838;28;19912;-78
2023/01/25 12:01:08;;;;;;;;;;;;;;;;;;5081878;28;20423;-78
2023/01/25 12:03:35;;;;;;;;;;;;;;;;;;5081576;28;19908;-78
2023/01/25 12:06:01;;;;;;;;;;;;;;;;;;5080100;28;20269;-78
2023/01/25 12:08:26;;;;;;;;;;;;;;;;;;5081814;28;19941;-78
2023/01/25 12:10:52;;;;;;;;;;;;;;;;;;5082263;28;19913;-77
2023/01/25 12:13:18;;;;;;;;;;;;;;;;;;5081085;28;19908;-77
2023/01/25 12:15:44;;;;;;;;;;;;;;;;;;5081448;28;20434;-77
2023/01/25 12:18:10;;;;;;;;;;;;;;;;;;5080624;28;19908;-77
2023/01/25 12:20:36;;;;;;;;;;;;;;;;;;5081824;28;19951;-77
2023/01/25 12:23:02;;;;;;;;;;;;;;;;;;5081341;28;20316;-78
2023/01/25 12:25:28;;;;;;;;;;;;;;;;;;5076282;28;19919;-77
2023/01/25 12:27:54;;;;;;;;;;;;;;;;;;5077573;28;19909;-77
2023/01/25 12:30:19;;;;;;;;;;;;;;;;;;5076958;28;19938;-77
2023/01/25 12:32:45;;;;;;;;;;;;;;;;;;5076995;28;19944;-77
2023/01/25 12:35:11;;;;;;;;;;;;;;;;;;5077380;28;20345;-76
2023/01/25 12:37:37;;;;;;;;;;;;;;;;;;5075888;28;19908;-77
2023/01/25 12:40:03;;;;;;;;;;;;;;;;;;5077191;28;19916;-77
2023/01/25 12:42:29;;;;;;;;;;;;;;;;;;5076103;28;19963;-77
2023/01/25 12:44:55;;;;;;;;;;;;;;;;;;5077288;28;20299;-77
2023/01/25 12:47:21;;;;;;;;;;;;;;;;;;5075423;28;20285;-76
2023/01/25 12:49:47;;;;;;;;;;;;;;;;;;5075882;28;19991;-77
2023/01/25 12:52:13;;;;;;;;;;;;;;;;;;5077071;28;19916;-76
2023/01/25 12:54:39;;;;;;;;;;;;;;;;;;5076416;28;19960;-77
2023/01/25 12:57:05;;;;;;;;;;;;;;;;;;5077053;28;19915;-77
2023/01/25 12:59:31;;;;;;;;;;;;;;;;;;5075350;28;20364;-77
2023/01/25 13:01:57;;;;;;;;;;;;;;;;;;5075385;28;19908;-77
2023/01/25 13:04:22;;;;;;;;;;;;;;;;;;5076420;28;20423;-77
2023/01/25 13:06:48;;;;;;;;;;;;;;;;;;5075784;28;19912;-79
2023/01/25 13:09:16;;;;;;;;;;;;;;;;;;5074730;28;21638;-77
2023/01/25 13:11:42;;;;;;;;;;;;;;;;;;5075506;28;19909;-77
2023/01/25 13:14:08;;;;;;;;;;;;;;;;;;5075877;28;19927;-76
2023/01/25 13:16:34;;;;;;;;;;;;;;;;;;5075301;28;20403;-76
2023/01/25 13:19:00;;;;;;;;;;;;;;;;;;5076640;28;19904;-76
2023/01/25 13:21:25;;;;;;;;;;;;;;;;;;5077205;28;19962;-77
2023/01/25 13:23:53;;;;;;;;;;;;;;;;;;5075785;28;19904;-77
2023/01/25 13:26:19;;;;;;;;;;;;;;;;;;5075472;28;19913;-77
2023/01/25 13:28:45;;;;;;;;;;;;;;;;;;5076519;28;19915;-77
2023/01/25 13:31:11;;;;;;;;;;;;;;;;;;5075330;28;19930;-77
2023/01/25 13:33:37;;;;;;;;;;;;;;;;;;5075028;28;19912;-77
2023/01/25 13:36:03;;;;;;;;;;;;;;;;;;5076636;28;20316;-78
2023/01/25 13:38:30;;;;;;;;;;;;;;;;;;5076827;28;19913;-77
2023/01/25 13:40:56;;;;;;;;;;;;;;;;;;5076716;28;19975;-77
2023/01/25 13:43:22;;;;;;;;;;;;;;;;;;5075785;28;19966;-77
2023/01/25 13:45:47;;;;;;;;;;;;;;;;;;5073620;28;19917;-77
2023/01/25 13:48:15;;;;;;;;;;;;;;;;;;5075022;28;19908;-78
2023/01/25 13:50:41;;;;;;;;;;;;;;;;;;5074177;28;19915;-77
2023/01/25 13:53:07;;;;;;;;;;;;;;;;;;5074342;28;19908;-76
2023/01/25 13:55:33;;;;;;;;;;;;;;;;;;5074974;28;19998;-76
2023/01/25 13:57:59;;;;;;;;;;;;;;;;;;5073504;28;19913;-77
2023/01/25 14:00:24;;;;;;;;;;;;;;;;;;5074759;28;19959;-77
2023/01/25 14:02:50;;;;;;;;;;;;;;;;;;5075787;28;19968;-77
2023/01/25 14:05:16;;;;;;;;;;;;;;;;;;5072248;28;19923;-78
2023/01/25 14:07:42;;;;;;;;;;;;;;;;;;5072981;28;20372;-77
2023/01/25 14:10:10;;;;;;;;;;;;;;;;;;5074946;28;19908;-79
2023/01/25 14:12:36;;;;;;;;;;;;;;;;;;5074574;28;19915;-77
2023/01/25 14:15:02;;;;;;;;;;;;;;;;;;5074429;28;20498;-77
2023/01/25 14:17:28;;;;;;;;;;;;;;;;;;5075405;28;20002;-77
2023/01/25 14:19:54;;;;;;;;;;;;;;;;;;5075929;28;19915;-76
2023/01/25 14:22:20;;;;;;;;;;;;;;;;;;5073233;28;20269;-76
2023/01/25 14:24:45;;;;;;;;;;;;;;;;;;5075124;28;19920;-78
2023/01/25 14:27:11;;;;;;;;;;;;;;;;;;5076162;28;19980;-79
2023/01/25 14:29:37;;;;;;;;;;;;;;;;;;5075213;28;19995;-77
2023/01/25 14:32:03;;;;;;;;;;;;;;;;;;5074947;28;19915;-77
2023/01/25 14:34:29;;;;;;;;;;;;;;;;;;5074660;28;19958;-78
2023/01/25 14:36:55;;;;;;;;;;;;;;;;;;5074992;28;19915;-77
2023/01/25 14:39:21;;;;;;;;;;;;;;;;;;5074768;28;19909;-77
2023/01/25 14:41:50;;;;;;;;;;;;;;;;;;5075659;28;19916;-78
2023/01/25 14:44:16;;;;;;;;;;;;;;;;;;5075885;28;19913;-75
2023/01/25 14:46:42;;;;;;;;;;;;;;;;;;5073872;28;19996;-77
2023/01/25 14:49:08;;;;;;;;;;;;;;;;;;5075145;28;20329;-77
2023/01/25 14:51:34;;;;;;;;;;;;;;;;;;5074398;28;19908;-77
2023/01/25 14:54:00;;;;;;;;;;;;;;;;;;5076931;28;20004;-77
2023/01/25 14:56:26;;;;;;;;;;;;;;;;;;5075125;28;20322;-77
2023/01/25 14:58:51;;;;;;;;;;;;;;;;;;5075136;28;20369;-78
2023/01/25 15:01:17;;;;;;;;;;;;;;;;;;5075955;28;19999;-77
2023/01/25 15:03:43;;;;;;;;;;;;;;;;;;5075384;28;19905;-77
2023/01/25 15:06:09;;;;;;;;;;;;;;;;;;5075106;28;19919;-78
2023/01/25 15:08:35;;;;;;;;;;;;;;;;;;5075327;28;19973;-76
2023/01/25 15:13:46;;;;;;;;;;;;;;;;;;5076343;28;19915;-77
2023/01/25 15:16:12;;;;;;;;;;;;;;;;;;5075843;28;19995;-77
2023/01/25 15:18:37;;;;;;;;;;;;;;;;;;5078746;28;20003;-76
2023/01/25 15:21:03;;;;;;;;;;;;;;;;;;5080596;28;19908;-76
2023/01/25 15:23:29;;;;;;;;;;;;;;;;;;5079606;28;20288;-77
2023/01/25 15:25:55;;;;;;;;;;;;;;;;;;5075815;28;19916;-77
2023/01/25 15:28:21;;;;;;;;;;;;;;;;;;5079804;28;19909;-77
2023/01/25 15:30:48;;;;;;;;;;;;;;;;;;5080717;28;19947;-77
2023/01/25 15:33:13;;;;;;;;;;;;;;;;;;5079007;28;19908;-75
2023/01/25 15:35:41;;;;;;;;;;;;;;;;;;5077578;28;19913;-77
2023/01/25 15:38:07;;;;;;;;;;;;;;;;;;5077774;28;20334;-77
2023/01/25 15:40:33;;;;;;;;;;;;;;;;;;5079926;28;19908;-77
2023/01/25 15:42:59;;;;;;;;;;;;;;;;;;5081112;28;19960;-77
2023/01/25 15:45:27;;;;;;;;;;;;;;;;;;5094732;28;20284;-76
2023/01/25 15:47:52;;;;;;;;;;;;;;;;;;5095560;28;19915;-75
2023/01/25 15:50:18;;;;;;;;;;;;;;;;;;5094057;28;19908;-75
2023/01/25 15:52:44;;;;;;;;;;;;;;;;;;5095798;28;19908;-75
2023/01/25 15:55:10;;;;;;;;;;;;;;;;;;5095525;28;20456;-75
2023/01/25 15:57:36;;;;;;;;;;;;;;;;;;5094489;28;19940;-78
2023/01/25 16:00:02;;;;;;;;;;;;;;;;;;5101121;28;19998;-78
2023/01/25 16:02:28;;;;;;;;;;;;;;;;;;5099830;28;19909;-78
2023/01/25 16:04:54;;;;;;;;;;;;;;;;;;5100401;28;20003;-78
2023/01/25 16:07:20;;;;;;;;;;;;;;;;;;5098602;28;19992;-77
2023/01/25 16:09:46;;;;;;;;;;;;;;;;;;5099367;28;19933;-76
2023/01/25 16:12:12;;;;;;;;;;;;;;;;;;5099592;28;19908;-77
2023/01/25 16:14:38;;;;;;;;;;;;;;;;;;5099666;28;19999;-78
2023/01/25 16:17:04;;;;;;;;;;;;;;;;;;5095593;28;19908;-77
2023/01/25 16:19:30;;;;;;;;;;;;;;;;;;5097808;28;19911;-77
2023/01/25 16:21:56;;;;;;;;;;;;;;;;;;5097964;28;19943;-77
2023/01/25 16:24:22;;;;;;;;;;;;;;;;;;5099480;28;19965;-77
2023/01/25 16:26:48;;;;;;;;;;;;;;;;;;5099289;28;19908;-77
2023/01/25 16:29:14;;;;;;;;;;;;;;;;;;5096984;28;19976;-77
2023/01/25 16:31:40;;;;;;;;;;;;;;;;;;5100948;28;19908;-77
2023/01/25 16:34:06;;;;;;;;;;;;;;;;;;5100460;28;20318;-76
2023/01/25 16:36:33;;;;;;;;;;;;;;;;;;5100647;28;19959;-77
2023/01/25 16:38:59;;;;;;;;;;;;;;;;;;5101853;28;20162;-77
2023/01/25 16:41:24;;;;;;;;;;;;;;;;;;5099711;28;19908;-77
2023/01/25 16:43:52;;;;;;;;;;;;;;;;;;5099484;28;19908;-77